Date,TemperatureHighF,TemperatureAvgF,TemperatureLowF,DewpointHighF,DewpointAvgF,DewpointLowF,HumidityHigh,HumidityAvg,HumidityLow,PressureMaxIn,PressureMinIn,WindSpeedMaxMPH,WindSpeedAvgMPH,GustSpeedMaxMPH,PrecipitationSumIn
2013-3-1,48,40,34,27,24,21,71,55,39,0.00,40.00,6,3,13,0.00
2013-3-2,43,36,32,25,20,18,72,51,41,0.00,40.00,6,3,12,0.00
2013-3-3,40,33,29,21,16,13,61,47,39,0.00,40.00,8,4,17,0.00
2013-3-4,42,34,27,18,15,12,55,45,36,0.00,40.00,8,5,20,0.00
2013-3-5,50,39,31,25,20,16,54,46,37,0.00,40.00,6,2,13,0.00
2013-3-6,44,40,38,32,27,23,69,58,50,0.00,40.00,10,4,26,0.00
2013-3-7,42,38,34,32,27,22,83,64,52,0.00,40.00,5,2,13,0.08
2013-3-8,40,36,33,33,30,26,87,78,63,0.00,40.00,4,1,9,0.33
2013-3-9,57,42,32,26,22,16,65,46,26,0.00,40.00,5,1,10,0.00
2013-3-10,50,39,31,33,26,17,69,59,46,0.00,40.00,5,2,8,0.00
2013-3-11,58,47,37,43,38,28,80,70,55,0.00,40.00,4,2,10,0.00
2013-3-12,59,52,44,56,46,34,89,81,61,0.00,40.00,7,2,15,0.79
2013-3-13,53,43,36,34,27,-100,76,55,30,0.00,40.00,9,2,14,0.00
2013-3-14,43,36,31,20,10,-100,51,35,23,0.00,40.00,10,5,23,0.00
2013-3-15,49,39,28,26,17,6,46,39,31,0.00,40.00,8,3,21,0.00
2013-3-16,44,37,34,26,21,16,67,52,40,0.00,40.00,3,1,6,0.04
2013-3-17,40,35,29,25,16,11,68,47,32,0.00,40.00,6,2,13,0.00
2013-3-18,39,33,27,27,17,8,74,50,39,0.00,40.00,7,2,13,0.00
2013-3-19,48,40,34,34,30,18,84,69,42,0.00,40.00,6,2,11,0.83
2013-3-20,48,39,30,20,16,14,52,40,29,0.00,40.00,9,3,18,0.00
2013-3-21,42,36,31,22,14,8,64,42,29,0.00,40.00,6,2,12,0.00
2013-3-22,44,35,26,17,13,9,49,40,31,0.00,40.00,8,3,17,0.00
2013-3-23,48,39,31,20,16,13,50,39,28,0.00,40.00,9,4,19,0.00
2013-3-24,50,40,28,22,17,12,46,39,31,0.00,40.00,6,2,11,0.00
2013-3-25,41,39,36,31,25,19,76,58,43,0.00,40.00,8,2,17,0.12
2013-3-26,54,43,33,30,25,21,72,52,30,0.00,40.00,6,2,12,0.00
2013-3-27,54,44,34,26,22,18,54,43,26,0.00,40.00,8,4,15,0.00
2013-3-28,53,44,36,28,25,22,60,48,37,0.00,40.00,7,3,13,0.00
2013-3-29,57,45,34,28,24,20,58,43,28,0.00,40.00,6,2,15,0.00
2013-3-30,61,46,34,28,21,16,56,39,22,0.00,40.00,6,1,12,0.00
2013-3-31,59,46,34,40,27,16,76,49,35,0.00,40.00,7,2,12,0.13